Syringa, Virginia
Current Conditions -  °F | °C
As of 11:15 AM on Tuesday 21 Oct 2014 (Local Time) from KW75 Reporting Station
Clear Clear  
Wind Chill: 64°   Ceiling: Unl
Heat Index: 64°   Visibility: 10mi
Dew Point: 53°   Wind: 5mph
Humidity: 69%   Direction: 320°NW
Pressure: 29.87"   Gusts: NA
Location:  37.5982°N, 76.4579°W
Report Text: KW75 211515Z AUTO 32004KT 10SM CLR 18/12 A2987 RMK AO1 T01760118
Loading
Personal Weather Stations






























Interactive Weather Map
Tropical Storm Tracking
New forecast layout! Learn more

10-Day Weather Forecast

Advertisements
Track Severe Weather on mobile